Ebeye, Marshall Islands
Current Conditions -  °F | °C
As of 3:20 AM on Wednesday 22 Oct 2014 (Local Time) from PKWA Reporting Station
Scattered Clouds Scattered Clouds  
Wind Chill: 82°   Ceiling: Unl
Heat Index: 89°   Visibility: 10mi
Dew Point: 75°   Wind: 3mph
Humidity: 77%   Direction: 180°S
Pressure: 29.81"   Gusts: NA
Location:  8.89°N, 167.63°E
Report Text: PKWA 211520Z AUTO 18003KT 10SM SCT013 SCT020 SCT033 28/24 A2981 RMK AO2 P0002 T02800237
Loading
Personal Weather Stations






























Interactive Weather Map
Tropical Storm Tracking
New forecast layout! Learn more

10-Day Weather Forecast

Advertisements
Track Severe Weather on mobile